sensor_id;sensor_type;location;lat;lon;timestamp;P1;durP1;ratioP1;P2;durP2;ratioP2
53309;SDS011;39197;53.200;5.792;2022-12-18T00:01:02;86.93;;;35.85;;
53309;SDS011;39197;53.200;5.792;2022-12-18T00:03:32;125.40;;;50.10;;
53309;SDS011;39197;53.200;5.792;2022-12-18T00:05:58;122.07;;;48.20;;
53309;SDS011;39197;53.200;5.792;2022-12-18T00:08:23;114.68;;;43.28;;
53309;SDS011;39197;53.200;5.792;2022-12-18T00:10:49;102.78;;;38.50;;
53309;SDS011;39197;53.200;5.792;2022-12-18T00:13:15;112.93;;;45.53;;
53309;SDS011;39197;53.200;5.792;2022-12-18T00:15:41;123.18;;;49.13;;
53309;SDS011;39197;53.200;5.792;2022-12-18T00:18:07;118.47;;;46.92;;
53309;SDS011;39197;53.200;5.792;2022-12-18T00:20:36;130.77;;;50.78;;
53309;SDS011;39197;53.200;5.792;2022-12-18T00:23:03;116.72;;;45.00;;
53309;SDS011;39197;53.200;5.792;2022-12-18T00:25:31;127.72;;;47.97;;
53309;SDS011;39197;53.200;5.792;2022-12-18T00:27:59;102.18;;;42.17;;
53309;SDS011;39197;53.200;5.792;2022-12-18T00:30:24;92.18;;;38.90;;
53309;SDS011;39197;53.200;5.792;2022-12-18T00:32:50;116.22;;;45.80;;
53309;SDS011;39197;53.200;5.792;2022-12-18T00:35:16;60.85;;;26.60;;
53309;SDS011;39197;53.200;5.792;2022-12-18T00:37:41;113.93;;;48.28;;
53309;SDS011;39197;53.200;5.792;2022-12-18T00:40:07;100.20;;;44.03;;
53309;SDS011;39197;53.200;5.792;2022-12-18T00:42:36;122.88;;;56.28;;
53309;SDS011;39197;53.200;5.792;2022-12-18T00:45:20;87.72;;;35.67;;
53309;SDS011;39197;53.200;5.792;2022-12-18T00:47:55;77.50;;;35.45;;
53309;SDS011;39197;53.200;5.792;2022-12-18T00:50:22;56.28;;;24.73;;
53309;SDS011;39197;53.200;5.792;2022-12-18T00:52:48;126.57;;;47.58;;
53309;SDS011;39197;53.200;5.792;2022-12-18T00:55:15;111.93;;;45.13;;
53309;SDS011;39197;53.200;5.792;2022-12-18T00:57:40;125.82;;;46.42;;
53309;SDS011;39197;53.200;5.792;2022-12-18T01:00:06;122.10;;;47.50;;
53309;SDS011;39197;53.200;5.792;2022-12-18T01:02:34;107.78;;;45.35;;
53309;SDS011;39197;53.200;5.792;2022-12-18T01:05:00;100.35;;;40.90;;
53309;SDS011;39197;53.200;5.792;2022-12-18T01:07:26;103.88;;;45.15;;
53309;SDS011;39197;53.200;5.792;2022-12-18T01:09:51;109.50;;;43.35;;
53309;SDS011;39197;53.200;5.792;2022-12-18T01:12:17;110.78;;;46.60;;
53309;SDS011;39197;53.200;5.792;2022-12-18T01:14:43;106.10;;;41.17;;
53309;SDS011;39197;53.200;5.792;2022-12-18T01:17:08;109.93;;;44.35;;
53309;SDS011;39197;53.200;5.792;2022-12-18T01:19:34;111.97;;;44.55;;
53309;SDS011;39197;53.200;5.792;2022-12-18T01:21:59;117.60;;;54.83;;
53309;SDS011;39197;53.200;5.792;2022-12-18T01:24:25;119.80;;;47.25;;
53309;SDS011;39197;53.200;5.792;2022-12-18T01:26:51;88.18;;;33.55;;
53309;SDS011;39197;53.200;5.792;2022-12-18T01:29:16;100.60;;;37.40;;
53309;SDS011;39197;53.200;5.792;2022-12-18T01:31:42;117.20;;;46.03;;
53309;SDS011;39197;53.200;5.792;2022-12-18T01:34:08;110.03;;;47.15;;
53309;SDS011;39197;53.200;5.792;2022-12-18T01:36:35;106.50;;;44.95;;
53309;SDS011;39197;53.200;5.792;2022-12-18T01:39:04;117.25;;;45.67;;
53309;SDS011;39197;53.200;5.792;2022-12-18T01:41:31;60.72;;;22.95;;
53309;SDS011;39197;53.200;5.792;2022-12-18T01:52:49;94.38;;;38.05;;
53309;SDS011;39197;53.200;5.792;2022-12-18T01:55:22;96.40;;;37.85;;
53309;SDS011;39197;53.200;5.792;2022-12-18T01:57:51;99.88;;;41.25;;
53309;SDS011;39197;53.200;5.792;2022-12-18T02:00:19;100.95;;;41.70;;
53309;SDS011;39197;53.200;5.792;2022-12-18T02:02:46;96.70;;;37.58;;
53309;SDS011;39197;53.200;5.792;2022-12-18T02:05:13;93.05;;;37.53;;
53309;SDS011;39197;53.200;5.792;2022-12-18T02:07:49;104.72;;;41.20;;
53309;SDS011;39197;53.200;5.792;2022-12-18T02:15:53;101.10;;;43.20;;
53309;SDS011;39197;53.200;5.792;2022-12-18T02:18:27;105.90;;;39.95;;
53309;SDS011;39197;53.200;5.792;2022-12-18T02:28:33;93.40;;;38.60;;
53309;SDS011;39197;53.200;5.792;2022-12-18T02:31:03;104.85;;;41.00;;
53309;SDS011;39197;53.200;5.792;2022-12-18T02:33:33;96.25;;;38.22;;
53309;SDS011;39197;53.200;5.792;2022-12-18T02:36:01;84.85;;;35.25;;
53309;SDS011;39197;53.200;5.792;2022-12-18T02:38:28;67.88;;;27.48;;
53309;SDS011;39197;53.200;5.792;2022-12-18T02:40:55;82.13;;;33.50;;
53309;SDS011;39197;53.200;5.792;2022-12-18T02:43:22;97.40;;;35.05;;
53309;SDS011;39197;53.200;5.792;2022-12-18T02:45:56;92.55;;;36.47;;
53309;SDS011;39197;53.200;5.792;2022-12-18T02:48:24;87.15;;;33.35;;
53309;SDS011;39197;53.200;5.792;2022-12-18T02:51:03;103.45;;;38.45;;
53309;SDS011;39197;53.200;5.792;2022-12-18T02:53:42;103.78;;;41.13;;
53309;SDS011;39197;53.200;5.792;2022-12-18T02:56:32;99.03;;;35.15;;
53309;SDS011;39197;53.200;5.792;2022-12-18T02:59:15;101.18;;;37.63;;
53309;SDS011;39197;53.200;5.792;2022-12-18T03:04:42;107.93;;;41.80;;
53309;SDS011;39197;53.200;5.792;2022-12-18T03:07:18;99.15;;;34.58;;
53309;SDS011;39197;53.200;5.792;2022-12-18T03:09:48;95.50;;;35.60;;
53309;SDS011;39197;53.200;5.792;2022-12-18T03:14:50;103.13;;;37.60;;
53309;SDS011;39197;53.200;5.792;2022-12-18T03:17:26;109.00;;;38.88;;
53309;SDS011;39197;53.200;5.792;2022-12-18T03:19:56;114.45;;;42.13;;
53309;SDS011;39197;53.200;5.792;2022-12-18T03:22:23;102.90;;;38.60;;
53309;SDS011;39197;53.200;5.792;2022-12-18T03:24:52;104.10;;;38.15;;
53309;SDS011;39197;53.200;5.792;2022-12-18T03:27:20;95.15;;;37.38;;
53309;SDS011;39197;53.200;5.792;2022-12-18T03:29:48;97.10;;;36.00;;
53309;SDS011;39197;53.200;5.792;2022-12-18T03:32:33;79.03;;;29.20;;
53309;SDS011;39197;53.200;5.792;2022-12-18T03:35:24;96.13;;;34.35;;
53309;SDS011;39197;53.200;5.792;2022-12-18T03:37:55;96.55;;;36.10;;
53309;SDS011;39197;53.200;5.792;2022-12-18T03:40:21;96.78;;;35.75;;
53309;SDS011;39197;53.200;5.792;2022-12-18T03:42:54;72.57;;;29.43;;
53309;SDS011;39197;53.200;5.792;2022-12-18T03:45:32;90.80;;;33.45;;
53309;SDS011;39197;53.200;5.792;2022-12-18T03:48:07;95.65;;;33.85;;
53309;SDS011;39197;53.200;5.792;2022-12-18T03:55:58;114.35;;;41.00;;
53309;SDS011;39197;53.200;5.792;2022-12-18T03:58:25;107.15;;;38.10;;
53309;SDS011;39197;53.200;5.792;2022-12-18T04:00:52;99.00;;;36.38;;
53309;SDS011;39197;53.200;5.792;2022-12-18T04:03:21;109.13;;;39.17;;
53309;SDS011;39197;53.200;5.792;2022-12-18T04:05:48;86.28;;;34.47;;
53309;SDS011;39197;53.200;5.792;2022-12-18T04:08:19;96.18;;;35.50;;
53309;SDS011;39197;53.200;5.792;2022-12-18T04:10:46;92.38;;;36.03;;
53309;SDS011;39197;53.200;5.792;2022-12-18T04:13:12;109.97;;;39.35;;
53309;SDS011;39197;53.200;5.792;2022-12-18T04:15:46;96.70;;;36.85;;
53309;SDS011;39197;53.200;5.792;2022-12-18T04:18:11;96.50;;;34.63;;
53309;SDS011;39197;53.200;5.792;2022-12-18T04:20:37;104.40;;;37.30;;
53309;SDS011;39197;53.200;5.792;2022-12-18T04:23:02;101.53;;;39.03;;
53309;SDS011;39197;53.200;5.792;2022-12-18T04:25:28;46.42;;;20.00;;
53309;SDS011;39197;53.200;5.792;2022-12-18T04:27:54;109.07;;;39.40;;
53309;SDS011;39197;53.200;5.792;2022-12-18T04:30:19;111.28;;;41.20;;
53309;SDS011;39197;53.200;5.792;2022-12-18T04:32:45;100.43;;;37.55;;
53309;SDS011;39197;53.200;5.792;2022-12-18T04:35:10;91.65;;;33.38;;
53309;SDS011;39197;53.200;5.792;2022-12-18T04:37:36;78.63;;;30.15;;
53309;SDS011;39197;53.200;5.792;2022-12-18T04:40:02;92.88;;;33.88;;
53309;SDS011;39197;53.200;5.792;2022-12-18T04:42:29;104.03;;;39.80;;
53309;SDS011;39197;53.200;5.792;2022-12-18T04:44:55;98.97;;;38.95;;
53309;SDS011;39197;53.200;5.792;2022-12-18T04:47:20;95.80;;;37.90;;
53309;SDS011;39197;53.200;5.792;2022-12-18T04:49:46;104.95;;;41.53;;
53309;SDS011;39197;53.200;5.792;2022-12-18T04:52:11;95.10;;;38.05;;
53309;SDS011;39197;53.200;5.792;2022-12-18T04:54:37;101.78;;;35.85;;
53309;SDS011;39197;53.200;5.792;2022-12-18T04:57:02;103.93;;;41.08;;
53309;SDS011;39197;53.200;5.792;2022-12-18T04:59:28;85.80;;;31.05;;
53309;SDS011;39197;53.200;5.792;2022-12-18T05:01:54;88.47;;;31.27;;
53309;SDS011;39197;53.200;5.792;2022-12-18T05:04:19;73.00;;;28.50;;
53309;SDS011;39197;53.200;5.792;2022-12-18T05:06:45;99.35;;;39.47;;
53309;SDS011;39197;53.200;5.792;2022-12-18T05:09:11;98.97;;;39.28;;
53309;SDS011;39197;53.200;5.792;2022-12-18T05:11:36;89.22;;;35.38;;
53309;SDS011;39197;53.200;5.792;2022-12-18T05:14:02;88.78;;;33.25;;
53309;SDS011;39197;53.200;5.792;2022-12-18T05:16:28;95.00;;;39.45;;
53309;SDS011;39197;53.200;5.792;2022-12-18T05:18:53;73.85;;;30.48;;
53309;SDS011;39197;53.200;5.792;2022-12-18T05:21:19;87.55;;;35.28;;
53309;SDS011;39197;53.200;5.792;2022-12-18T05:23:44;100.18;;;36.65;;
53309;SDS011;39197;53.200;5.792;2022-12-18T05:26:11;85.28;;;29.65;;
53309;SDS011;39197;53.200;5.792;2022-12-18T05:28:42;80.35;;;33.92;;
53309;SDS011;39197;53.200;5.792;2022-12-18T05:31:08;90.80;;;37.90;;
53309;SDS011;39197;53.200;5.792;2022-12-18T05:33:34;81.05;;;34.58;;
53309;SDS011;39197;53.200;5.792;2022-12-18T05:36:04;68.10;;;28.58;;
53309;SDS011;39197;53.200;5.792;2022-12-18T05:38:32;80.57;;;33.10;;
53309;SDS011;39197;53.200;5.792;2022-12-18T05:41:00;80.25;;;35.20;;
53309;SDS011;39197;53.200;5.792;2022-12-18T05:43:26;84.63;;;32.10;;
53309;SDS011;39197;53.200;5.792;2022-12-18T05:45:52;80.03;;;33.95;;
53309;SDS011;39197;53.200;5.792;2022-12-18T05:48:19;80.68;;;32.85;;
53309;SDS011;39197;53.200;5.792;2022-12-18T05:50:46;88.40;;;34.38;;
53309;SDS011;39197;53.200;5.792;2022-12-18T05:53:13;76.65;;;31.05;;
53309;SDS011;39197;53.200;5.792;2022-12-18T05:55:40;70.72;;;28.52;;
53309;SDS011;39197;53.200;5.792;2022-12-18T05:58:07;79.15;;;33.85;;
53309;SDS011;39197;53.200;5.792;2022-12-18T06:00:34;68.50;;;30.10;;
53309;SDS011;39197;53.200;5.792;2022-12-18T06:03:04;68.15;;;28.27;;
53309;SDS011;39197;53.200;5.792;2022-12-18T06:05:37;75.78;;;33.20;;
53309;SDS011;39197;53.200;5.792;2022-12-18T06:08:03;63.83;;;28.13;;
53309;SDS011;39197;53.200;5.792;2022-12-18T06:10:29;73.95;;;32.78;;
53309;SDS011;39197;53.200;5.792;2022-12-18T06:12:55;70.72;;;29.73;;
53309;SDS011;39197;53.200;5.792;2022-12-18T06:15:21;67.50;;;31.38;;
53309;SDS011;39197;53.200;5.792;2022-12-18T06:17:46;71.25;;;30.70;;
53309;SDS011;39197;53.200;5.792;2022-12-18T06:20:12;76.63;;;34.35;;
53309;SDS011;39197;53.200;5.792;2022-12-18T06:22:37;79.43;;;33.65;;
53309;SDS011;39197;53.200;5.792;2022-12-18T06:25:03;74.93;;;32.25;;
53309;SDS011;39197;53.200;5.792;2022-12-18T06:27:30;70.53;;;31.45;;
53309;SDS011;39197;53.200;5.792;2022-12-18T06:29:58;67.50;;;30.20;;
53309;SDS011;39197;53.200;5.792;2022-12-18T06:32:24;76.43;;;32.10;;
53309;SDS011;39197;53.200;5.792;2022-12-18T06:34:50;69.53;;;29.10;;
53309;SDS011;39197;53.200;5.792;2022-12-18T06:37:16;62.45;;;30.00;;
53309;SDS011;39197;53.200;5.792;2022-12-18T06:39:41;66.07;;;29.40;;
53309;SDS011;39197;53.200;5.792;2022-12-18T06:42:07;69.82;;;32.35;;
53309;SDS011;39197;53.200;5.792;2022-12-18T06:44:33;66.43;;;29.67;;
53309;SDS011;39197;53.200;5.792;2022-12-18T06:46:58;63.67;;;31.08;;
53309;SDS011;39197;53.200;5.792;2022-12-18T06:49:24;64.28;;;27.98;;
53309;SDS011;39197;53.200;5.792;2022-12-18T06:51:50;69.53;;;30.15;;
53309;SDS011;39197;53.200;5.792;2022-12-18T06:54:15;63.65;;;29.55;;
53309;SDS011;39197;53.200;5.792;2022-12-18T06:56:41;61.42;;;29.23;;
53309;SDS011;39197;53.200;5.792;2022-12-18T06:59:06;64.82;;;28.42;;
53309;SDS011;39197;53.200;5.792;2022-12-18T07:01:32;56.58;;;25.17;;
53309;SDS011;39197;53.200;5.792;2022-12-18T07:03:58;64.75;;;28.27;;
53309;SDS011;39197;53.200;5.792;2022-12-18T07:06:24;60.72;;;27.27;;
53309;SDS011;39197;53.200;5.792;2022-12-18T07:08:51;63.20;;;30.15;;
53309;SDS011;39197;53.200;5.792;2022-12-18T07:11:18;62.65;;;28.58;;
53309;SDS011;39197;53.200;5.792;2022-12-18T07:13:44;56.65;;;27.05;;
53309;SDS011;39197;53.200;5.792;2022-12-18T07:16:14;57.78;;;28.85;;
53309;SDS011;39197;53.200;5.792;2022-12-18T07:18:42;59.72;;;27.58;;
53309;SDS011;39197;53.200;5.792;2022-12-18T07:21:11;59.22;;;27.23;;
53309;SDS011;39197;53.200;5.792;2022-12-18T07:23:38;66.38;;;26.38;;
53309;SDS011;39197;53.200;5.792;2022-12-18T07:26:05;55.20;;;25.25;;
53309;SDS011;39197;53.200;5.792;2022-12-18T07:28:41;44.90;;;22.50;;
53309;SDS011;39197;53.200;5.792;2022-12-18T07:31:10;55.60;;;24.95;;
53309;SDS011;39197;53.200;5.792;2022-12-18T07:33:39;47.75;;;20.42;;
53309;SDS011;39197;53.200;5.792;2022-12-18T07:36:06;47.38;;;22.27;;
53309;SDS011;39197;53.200;5.792;2022-12-18T07:38:33;44.22;;;22.63;;
53309;SDS011;39197;53.200;5.792;2022-12-18T07:41:03;54.88;;;25.70;;
53309;SDS011;39197;53.200;5.792;2022-12-18T07:43:31;45.67;;;22.00;;
53309;SDS011;39197;53.200;5.792;2022-12-18T07:45:57;50.85;;;24.08;;
53309;SDS011;39197;53.200;5.792;2022-12-18T07:48:22;49.92;;;23.83;;
53309;SDS011;39197;53.200;5.792;2022-12-18T07:50:48;39.45;;;16.85;;
53309;SDS011;39197;53.200;5.792;2022-12-18T07:53:14;53.08;;;22.50;;
53309;SDS011;39197;53.200;5.792;2022-12-18T07:55:40;50.10;;;22.90;;
53309;SDS011;39197;53.200;5.792;2022-12-18T07:58:06;44.97;;;23.13;;
53309;SDS011;39197;53.200;5.792;2022-12-18T08:00:33;52.65;;;22.92;;
53309;SDS011;39197;53.200;5.792;2022-12-18T08:02:59;43.95;;;21.27;;
53309;SDS011;39197;53.200;5.792;2022-12-18T08:05:25;42.78;;;20.88;;
53309;SDS011;39197;53.200;5.792;2022-12-18T08:07:51;46.53;;;20.77;;
53309;SDS011;39197;53.200;5.792;2022-12-18T08:10:18;41.58;;;21.58;;
53309;SDS011;39197;53.200;5.792;2022-12-18T08:12:44;41.70;;;19.92;;
53309;SDS011;39197;53.200;5.792;2022-12-18T08:15:10;46.38;;;22.42;;
53309;SDS011;39197;53.200;5.792;2022-12-18T08:17:36;36.42;;;17.95;;
53309;SDS011;39197;53.200;5.792;2022-12-18T08:20:01;40.20;;;20.38;;
53309;SDS011;39197;53.200;5.792;2022-12-18T08:22:27;40.80;;;19.25;;
53309;SDS011;39197;53.200;5.792;2022-12-18T08:24:53;39.00;;;18.73;;
53309;SDS011;39197;53.200;5.792;2022-12-18T08:27:19;40.63;;;20.55;;
53309;SDS011;39197;53.200;5.792;2022-12-18T08:29:44;36.95;;;19.45;;
53309;SDS011;39197;53.200;5.792;2022-12-18T08:32:10;42.35;;;18.65;;
53309;SDS011;39197;53.200;5.792;2022-12-18T08:34:35;41.60;;;17.90;;
53309;SDS011;39197;53.200;5.792;2022-12-18T08:37:01;38.00;;;19.45;;
53309;SDS011;39197;53.200;5.792;2022-12-18T08:39:27;38.28;;;19.33;;
53309;SDS011;39197;53.200;5.792;2022-12-18T08:41:52;41.25;;;19.48;;
53309;SDS011;39197;53.200;5.792;2022-12-18T08:44:36;38.13;;;18.42;;
53309;SDS011;39197;53.200;5.792;2022-12-18T08:47:02;36.38;;;19.80;;
53309;SDS011;39197;53.200;5.792;2022-12-18T08:49:28;35.50;;;17.73;;
53309;SDS011;39197;53.200;5.792;2022-12-18T08:51:54;34.85;;;18.75;;
53309;SDS011;39197;53.200;5.792;2022-12-18T08:54:22;34.97;;;18.25;;
53309;SDS011;39197;53.200;5.792;2022-12-18T08:56:48;34.05;;;19.40;;
53309;SDS011;39197;53.200;5.792;2022-12-18T08:59:17;37.17;;;18.00;;
53309;SDS011;39197;53.200;5.792;2022-12-18T09:01:44;29.35;;;16.08;;
53309;SDS011;39197;53.200;5.792;2022-12-18T09:04:10;33.50;;;17.27;;
53309;SDS011;39197;53.200;5.792;2022-12-18T09:06:36;32.28;;;17.55;;
53309;SDS011;39197;53.200;5.792;2022-12-18T09:09:03;33.00;;;16.98;;
53309;SDS011;39197;53.200;5.792;2022-12-18T09:11:29;31.02;;;14.55;;
53309;SDS011;39197;53.200;5.792;2022-12-18T09:13:55;32.08;;;15.93;;
53309;SDS011;39197;53.200;5.792;2022-12-18T09:16:22;32.45;;;15.38;;
53309;SDS011;39197;53.200;5.792;2022-12-18T09:18:49;30.58;;;15.38;;
53309;SDS011;39197;53.200;5.792;2022-12-18T09:21:16;34.50;;;16.90;;
53309;SDS011;39197;53.200;5.792;2022-12-18T09:23:44;36.70;;;16.65;;
53309;SDS011;39197;53.200;5.792;2022-12-18T09:26:14;31.63;;;17.85;;
53309;SDS011;39197;53.200;5.792;2022-12-18T09:28:39;28.20;;;15.18;;
53309;SDS011;39197;53.200;5.792;2022-12-18T09:31:06;30.15;;;16.65;;
53309;SDS011;39197;53.200;5.792;2022-12-18T09:33:32;28.08;;;16.35;;
53309;SDS011;39197;53.200;5.792;2022-12-18T09:36:00;30.67;;;16.10;;
53309;SDS011;39197;53.200;5.792;2022-12-18T09:38:31;31.17;;;16.10;;
53309;SDS011;39197;53.200;5.792;2022-12-18T09:44:03;33.53;;;18.98;;
53309;SDS011;39197;53.200;5.792;2022-12-18T09:46:37;30.50;;;14.90;;
53309;SDS011;39197;53.200;5.792;2022-12-18T09:49:11;30.77;;;14.80;;
53309;SDS011;39197;53.200;5.792;2022-12-18T09:51:41;28.42;;;13.90;;
53309;SDS011;39197;53.200;5.792;2022-12-18T09:54:26;26.58;;;14.65;;
53309;SDS011;39197;53.200;5.792;2022-12-18T09:56:57;24.67;;;13.93;;
53309;SDS011;39197;53.200;5.792;2022-12-18T09:59:24;27.60;;;15.18;;
53309;SDS011;39197;53.200;5.792;2022-12-18T10:01:54;28.45;;;16.08;;
53309;SDS011;39197;53.200;5.792;2022-12-18T10:04:21;25.35;;;13.32;;
53309;SDS011;39197;53.200;5.792;2022-12-18T10:11:54;22.38;;;12.75;;
53309;SDS011;39197;53.200;5.792;2022-12-18T10:17:24;22.50;;;13.13;;
53309;SDS011;39197;53.200;5.792;2022-12-18T10:20:03;23.80;;;12.23;;
53309;SDS011;39197;53.200;5.792;2022-12-18T10:27:54;20.65;;;11.30;;
53309;SDS011;39197;53.200;5.792;2022-12-18T10:30:23;20.02;;;11.25;;
53309;SDS011;39197;53.200;5.792;2022-12-18T10:32:50;17.45;;;10.68;;
53309;SDS011;39197;53.200;5.792;2022-12-18T10:35:23;22.20;;;11.77;;
53309;SDS011;39197;53.200;5.792;2022-12-18T10:38:07;16.80;;;10.10;;
53309;SDS011;39197;53.200;5.792;2022-12-18T10:41:02;19.98;;;10.85;;
53309;SDS011;39197;53.200;5.792;2022-12-18T10:43:39;19.08;;;10.27;;
53309;SDS011;39197;53.200;5.792;2022-12-18T10:51:19;15.02;;;9.32;;
53309;SDS011;39197;53.200;5.792;2022-12-18T10:53:51;16.70;;;10.45;;
53309;SDS011;39197;53.200;5.792;2022-12-18T10:56:21;16.33;;;8.98;;
53309;SDS011;39197;53.200;5.792;2022-12-18T10:58:55;16.90;;;10.52;;
53309;SDS011;39197;53.200;5.792;2022-12-18T11:01:31;16.02;;;9.70;;
53309;SDS011;39197;53.200;5.792;2022-12-18T11:04:21;17.85;;;9.88;;
53309;SDS011;39197;53.200;5.792;2022-12-18T11:07:07;16.83;;;10.00;;
53309;SDS011;39197;53.200;5.792;2022-12-18T11:09:37;14.63;;;9.07;;
53309;SDS011;39197;53.200;5.792;2022-12-18T11:12:18;15.88;;;8.60;;
53309;SDS011;39197;53.200;5.792;2022-12-18T11:14:49;15.20;;;9.10;;
53309;SDS011;39197;53.200;5.792;2022-12-18T11:22:45;10.32;;;6.10;;
53309;SDS011;39197;53.200;5.792;2022-12-18T11:25:21;11.88;;;7.75;;
53309;SDS011;39197;53.200;5.792;2022-12-18T11:27:55;13.98;;;8.05;;
53309;SDS011;39197;53.200;5.792;2022-12-18T11:30:27;10.57;;;6.93;;
53309;SDS011;39197;53.200;5.792;2022-12-18T11:35:37;12.52;;;7.75;;
53309;SDS011;39197;53.200;5.792;2022-12-18T11:38:10;10.35;;;7.05;;
53309;SDS011;39197;53.200;5.792;2022-12-18T11:44:28;12.85;;;7.80;;
53309;SDS011;39197;53.200;5.792;2022-12-18T11:47:02;13.02;;;7.60;;
53309;SDS011;39197;53.200;5.792;2022-12-18T11:49:34;14.02;;;7.80;;
53309;SDS011;39197;53.200;5.792;2022-12-18T11:54:44;12.52;;;7.32;;
53309;SDS011;39197;53.200;5.792;2022-12-18T11:59:55;13.57;;;7.82;;
53309;SDS011;39197;53.200;5.792;2022-12-18T12:06:19;11.27;;;6.93;;
53309;SDS011;39197;53.200;5.792;2022-12-18T12:08:37;11.83;;;7.47;;
53309;SDS011;39197;53.200;5.792;2022-12-18T12:11:33;11.07;;;7.53;;
53309;SDS011;39197;53.200;5.792;2022-12-18T12:14:06;8.82;;;6.43;;
53309;SDS011;39197;53.200;5.792;2022-12-18T12:22:13;12.80;;;7.43;;
53309;SDS011;39197;53.200;5.792;2022-12-18T12:30:15;12.50;;;7.43;;
53309;SDS011;39197;53.200;5.792;2022-12-18T12:33:05;11.07;;;7.93;;
53309;SDS011;39197;53.200;5.792;2022-12-18T12:38:12;16.57;;;7.30;;
53309;SDS011;39197;53.200;5.792;2022-12-18T12:40:44;11.05;;;6.65;;
53309;SDS011;39197;53.200;5.792;2022-12-18T12:45:55;12.25;;;7.20;;
53309;SDS011;39197;53.200;5.792;2022-12-18T12:48:27;10.48;;;7.22;;
53309;SDS011;39197;53.200;5.792;2022-12-18T12:51:04;11.27;;;7.00;;
53309;SDS011;39197;53.200;5.792;2022-12-18T12:53:41;10.32;;;6.78;;
53309;SDS011;39197;53.200;5.792;2022-12-18T12:56:08;13.45;;;7.32;;
53309;SDS011;39197;53.200;5.792;2022-12-18T12:58:39;12.40;;;7.00;;
53309;SDS011;39197;53.200;5.792;2022-12-18T13:03:54;10.48;;;6.18;;
53309;SDS011;39197;53.200;5.792;2022-12-18T13:06:42;12.15;;;6.85;;
53309;SDS011;39197;53.200;5.792;2022-12-18T13:09:15;10.80;;;6.82;;
53309;SDS011;39197;53.200;5.792;2022-12-18T13:11:41;11.25;;;6.65;;
53309;SDS011;39197;53.200;5.792;2022-12-18T13:14:29;10.75;;;6.63;;
53309;SDS011;39197;53.200;5.792;2022-12-18T13:17:14;11.75;;;7.07;;
53309;SDS011;39197;53.200;5.792;2022-12-18T13:19:41;12.10;;;4.68;;
53309;SDS011;39197;53.200;5.792;2022-12-18T13:22:20;11.65;;;6.53;;
53309;SDS011;39197;53.200;5.792;2022-12-18T13:25:00;13.48;;;7.05;;
53309;SDS011;39197;53.200;5.792;2022-12-18T13:38:23;10.43;;;5.80;;
53309;SDS011;39197;53.200;5.792;2022-12-18T13:45:48;10.67;;;6.90;;
53309;SDS011;39197;53.200;5.792;2022-12-18T13:48:24;10.00;;;6.20;;
53309;SDS011;39197;53.200;5.792;2022-12-18T13:50:53;9.57;;;5.93;;
53309;SDS011;39197;53.200;5.792;2022-12-18T13:53:26;10.80;;;6.35;;
53309;SDS011;39197;53.200;5.792;2022-12-18T13:55:55;9.77;;;6.30;;
53309;SDS011;39197;53.200;5.792;2022-12-18T13:58:21;9.88;;;5.93;;
53309;SDS011;39197;53.200;5.792;2022-12-18T14:00:47;11.48;;;6.80;;
53309;SDS011;39197;53.200;5.792;2022-12-18T14:03:17;9.93;;;5.57;;
53309;SDS011;39197;53.200;5.792;2022-12-18T14:05:54;11.02;;;6.10;;
53309;SDS011;39197;53.200;5.792;2022-12-18T14:08:23;12.65;;;6.13;;
53309;SDS011;39197;53.200;5.792;2022-12-18T14:10:52;9.07;;;6.10;;
53309;SDS011;39197;53.200;5.792;2022-12-18T14:13:26;9.07;;;5.53;;
53309;SDS011;39197;53.200;5.792;2022-12-18T14:15:54;8.38;;;5.22;;
53309;SDS011;39197;53.200;5.792;2022-12-18T14:18:25;9.68;;;5.18;;
53309;SDS011;39197;53.200;5.792;2022-12-18T14:20:59;10.07;;;5.93;;
53309;SDS011;39197;53.200;5.792;2022-12-18T14:23:27;8.63;;;5.18;;
53309;SDS011;39197;53.200;5.792;2022-12-18T14:26:20;9.02;;;5.60;;
53309;SDS011;39197;53.200;5.792;2022-12-18T14:29:18;10.73;;;6.05;;
53309;SDS011;39197;53.200;5.792;2022-12-18T14:34:37;10.35;;;5.53;;
53309;SDS011;39197;53.200;5.792;2022-12-18T14:37:03;9.45;;;5.25;;
53309;SDS011;39197;53.200;5.792;2022-12-18T14:39:29;8.48;;;4.95;;
53309;SDS011;39197;53.200;5.792;2022-12-18T14:41:55;10.10;;;4.97;;
53309;SDS011;39197;53.200;5.792;2022-12-18T14:44:20;8.15;;;4.72;;
53309;SDS011;39197;53.200;5.792;2022-12-18T14:46:46;10.63;;;5.47;;
